createdAt,value
2023-03-06T00:00:29.757Z,43.19
2023-03-06T00:01:31.600Z,43.16
2023-03-06T00:02:35.892Z,43.41
2023-03-06T00:03:37.653Z,43.14
2023-03-06T00:04:40.500Z,43.18
2023-03-06T00:05:42.372Z,43.10
2023-03-06T00:06:45.117Z,43.43
2023-03-06T00:07:46.870Z,42.99
2023-03-06T00:08:51.781Z,43.11
2023-03-06T00:09:53.508Z,43.35
2023-03-06T00:10:57.162Z,43.05
2023-03-06T00:11:58.991Z,43.58
2023-03-06T00:13:03.192Z,43.38
2023-03-06T00:14:05.020Z,43.31
2023-03-06T00:15:09.320Z,43.26
2023-03-06T00:16:11.553Z,43.12
2023-03-06T00:17:14.303Z,43.26
2023-03-06T00:18:18.556Z,43.18
2023-03-06T00:19:20.385Z,42.87
2023-03-06T00:20:23.622Z,43.55
2023-03-06T00:21:25.350Z,43.14
2023-03-06T00:22:28.096Z,43.22
2023-03-06T00:23:29.824Z,42.90
2023-03-06T00:24:32.755Z,43.34
2023-03-06T00:25:38.481Z,43.29
2023-03-06T00:26:41.281Z,43.32
2023-03-06T00:27:43.699Z,43.47
2023-03-06T00:28:46.684Z,43.31
2023-03-06T00:29:49.274Z,43.44
2023-03-06T00:30:52.116Z,43.29
2023-03-06T00:31:53.876Z,43.34
2023-03-06T00:32:56.580Z,43.12
2023-03-06T00:33:59.658Z,43.33
2023-03-06T00:35:02.385Z,43.40
2023-03-06T00:36:05.967Z,43.08
2023-03-06T00:37:07.778Z,43.25
2023-03-06T00:38:12.222Z,43.14
2023-03-06T00:39:13.984Z,43.31
2023-03-06T00:40:18.724Z,43.36
2023-03-06T00:41:20.893Z,43.02
2023-03-06T00:42:23.683Z,42.78
2023-03-06T00:43:26.089Z,42.98
2023-03-06T00:44:28.796Z,43.11
2023-03-06T00:45:30.617Z,42.94
2023-03-06T00:46:33.348Z,42.87
2023-03-06T00:47:35.055Z,43.13
2023-03-06T00:48:37.787Z,42.81
2023-03-06T00:49:40.978Z,42.82
2023-03-06T00:50:43.680Z,43.19
2023-03-06T00:51:45.392Z,42.90
2023-03-06T00:52:48.187Z,43.18
2023-03-06T00:53:50.670Z,43.11
2023-03-06T00:54:53.482Z,43.10
2023-03-06T00:55:55.276Z,43.19
2023-03-06T00:56:58.039Z,43.26
2023-03-06T00:57:59.867Z,42.48
2023-03-06T00:59:02.631Z,43.11
2023-03-06T01:00:05.745Z,43.18
2023-03-06T01:01:08.513Z,42.70
2023-03-06T01:02:10.319Z,43.23
2023-03-06T01:03:13.119Z,42.89
2023-03-06T01:04:15.113Z,42.62
2023-03-06T01:05:19.292Z,43.03
2023-03-06T01:06:22.077Z,42.74
2023-03-06T01:07:23.878Z,42.61
2023-03-06T01:08:26.620Z,43.30
2023-03-06T01:09:29.176Z,43.16
2023-03-06T01:10:32.297Z,42.84
2023-03-06T01:11:34.057Z,43.19
2023-03-06T01:12:36.778Z,43.14
2023-03-06T01:13:38.497Z,43.26
2023-03-06T01:14:41.208Z,43.40
2023-03-06T01:15:42.968Z,43.32
2023-03-06T01:16:45.745Z,43.01
2023-03-06T01:17:47.747Z,43.04
2023-03-06T01:20:00.168Z,42.59
2023-03-06T01:21:04.006Z,43.40
2023-03-06T01:22:06.670Z,43.26
2023-03-06T01:23:08.371Z,43.41
2023-03-06T01:24:11.087Z,42.71
2023-03-06T01:25:13.259Z,42.95
2023-03-06T01:26:16.139Z,43.32
2023-03-06T01:27:17.865Z,42.72
2023-03-06T01:28:20.597Z,42.94
2023-03-06T01:29:22.296Z,42.95
2023-03-06T01:30:24.970Z,43.15
2023-03-06T01:31:26.911Z,43.38
2023-03-06T01:32:30.736Z,42.93
2023-03-06T01:33:32.713Z,43.36
2023-03-06T01:34:35.383Z,43.38
2023-03-06T01:35:38.038Z,43.24
2023-03-06T01:36:42.106Z,43.13
2023-03-06T01:37:43.873Z,43.12
2023-03-06T01:38:46.591Z,43.03
2023-03-06T01:39:48.568Z,43.43
2023-03-06T01:40:51.233Z,42.98
2023-03-06T01:41:53.019Z,43.15
2023-03-06T01:42:55.726Z,43.16
2023-03-06T01:43:57.444Z,42.99
2023-03-06T01:45:02.306Z,43.28
2023-03-06T01:46:25.000Z,43.01
2023-03-06T01:47:27.730Z,43.15
2023-03-06T01:48:29.490Z,43.21
2023-03-06T01:49:33.374Z,43.31
2023-03-06T01:50:35.076Z,42.88
2023-03-06T01:51:40.472Z,43.47
2023-03-06T01:52:48.184Z,43.08
2023-03-06T01:53:50.871Z,43.63
2023-03-06T01:54:55.146Z,43.08
2023-03-06T01:55:56.871Z,43.43
2023-03-06T01:57:02.404Z,43.36
2023-03-06T01:58:06.672Z,43.46
2023-03-06T01:59:09.506Z,43.43
2023-03-06T02:00:15.153Z,43.36
2023-03-06T02:01:18.986Z,43.66
2023-03-06T02:02:21.211Z,43.23
2023-03-06T02:03:26.557Z,43.53
2023-03-06T02:04:29.691Z,43.61
2023-03-06T02:05:31.432Z,43.68
2023-03-06T02:06:34.853Z,43.32
2023-03-06T02:07:37.806Z,43.72
2023-03-06T02:08:41.901Z,44.02
2023-03-06T02:09:43.636Z,43.54
2023-03-06T02:10:59.183Z,43.77
2023-03-06T02:12:02.313Z,43.83
2023-03-06T02:13:04.258Z,43.58
2023-03-06T02:14:06.939Z,44.04
2023-03-06T02:15:09.290Z,43.75
2023-03-06T02:16:13.485Z,43.62
2023-03-06T02:17:18.573Z,44.13
2023-03-06T02:18:20.326Z,44.04
2023-03-06T02:19:35.745Z,43.83
2023-03-06T02:20:45.701Z,43.86
2023-03-06T02:21:48.415Z,43.96
2023-03-06T02:22:54.582Z,44.15
2023-03-06T02:24:13.179Z,43.84
2023-03-06T02:25:33.123Z,44.01
2023-03-06T02:26:37.882Z,44.04
2023-03-06T02:27:39.918Z,44.11
2023-03-06T02:28:42.779Z,44.05
2023-03-06T02:29:45.620Z,44.02
2023-03-06T02:30:50.069Z,43.94
2023-03-06T02:31:51.756Z,44.23
2023-03-06T02:32:54.461Z,44.05
2023-03-06T02:34:08.432Z,43.67
2023-03-06T02:35:19.250Z,43.90
2023-03-06T02:36:20.969Z,44.28
2023-03-06T02:37:24.863Z,44.03
2023-03-06T02:38:28.942Z,44.42
2023-03-06T02:39:34.594Z,44.41
2023-03-06T02:40:38.962Z,44.57
2023-03-06T02:41:40.914Z,44.26
2023-03-06T02:42:47.471Z,43.98
2023-03-06T02:43:50.170Z,44.46
2023-03-06T02:44:54.078Z,44.56
2023-03-06T02:45:55.890Z,44.52
2023-03-06T02:46:58.712Z,44.61
2023-03-06T02:48:00.503Z,44.58
2023-03-06T02:49:03.224Z,44.40
2023-03-06T02:50:05.417Z,44.20
2023-03-06T02:51:08.052Z,44.48
2023-03-06T02:52:09.914Z,44.55
2023-03-06T02:53:14.126Z,44.76
2023-03-06T02:54:18.290Z,44.46
2023-03-06T02:55:21.108Z,44.37
2023-03-06T02:56:24.232Z,44.61
2023-03-06T02:57:26.943Z,43.61
2023-03-06T02:58:28.749Z,44.30
2023-03-06T02:59:31.433Z,44.24
2023-03-06T03:00:33.159Z,44.24
2023-03-06T03:01:35.842Z,44.66
2023-03-06T03:02:37.575Z,44.10
2023-03-06T03:03:40.421Z,44.25
2023-03-06T03:04:42.152Z,44.01
2023-03-06T03:05:44.912Z,44.03
2023-03-06T03:06:46.578Z,44.30
2023-03-06T03:07:49.208Z,44.42
2023-03-06T03:08:50.930Z,44.16
2023-03-06T03:09:53.643Z,44.17
2023-03-06T03:10:56.282Z,44.05
2023-03-06T03:12:00.372Z,44.24
2023-03-06T03:13:02.266Z,44.27
2023-03-06T03:14:05.041Z,43.98
2023-03-06T03:15:08.416Z,44.28
2023-03-06T03:16:13.951Z,44.37
2023-03-06T03:17:16.235Z,44.14
2023-03-06T03:18:18.883Z,44.34
2023-03-06T03:19:20.587Z,44.49
2023-03-06T03:20:24.204Z,43.96
2023-03-06T03:21:25.910Z,44.28
2023-03-06T03:22:28.550Z,44.03
2023-03-06T03:23:30.244Z,44.55
2023-03-06T03:24:33.139Z,44.31
2023-03-06T03:25:34.939Z,44.61
2023-03-06T03:26:37.604Z,44.42
2023-03-06T03:27:40.645Z,44.57
2023-03-06T03:28:43.602Z,44.30
2023-03-06T03:29:45.347Z,45.17
2023-03-06T03:30:48.109Z,44.18
2023-03-06T03:31:49.929Z,45.12
2023-03-06T03:32:52.670Z,45.00
2023-03-06T03:33:54.510Z,44.86
2023-03-06T03:34:57.626Z,45.11
2023-03-06T03:35:59.783Z,45.11
2023-03-06T03:37:02.476Z,45.58
2023-03-06T03:38:04.208Z,45.20
2023-03-06T03:39:07.120Z,44.93
2023-03-06T03:40:10.472Z,45.42
2023-03-06T03:41:13.188Z,45.22
2023-03-06T03:42:15.070Z,45.16
2023-03-06T03:43:19.306Z,45.63
2023-03-06T03:44:21.128Z,45.70
2023-03-06T03:45:24.215Z,45.50
2023-03-06T03:46:26.522Z,45.78
2023-03-06T03:47:29.228Z,45.53
2023-03-06T03:48:30.941Z,45.87
2023-03-06T03:49:33.586Z,45.66
2023-03-06T03:50:35.252Z,45.75
2023-03-06T03:51:37.944Z,45.82
2023-03-06T03:52:39.661Z,46.02
2023-03-06T03:53:42.390Z,46.06
2023-03-06T03:54:44.138Z,46.10
2023-03-06T03:55:47.705Z,45.88
2023-03-06T03:56:49.390Z,45.99
2023-03-06T03:57:52.191Z,45.92
2023-03-06T03:58:55.248Z,46.17
2023-03-06T03:59:58.011Z,46.28
2023-03-06T04:00:59.770Z,46.15
2023-03-06T04:02:04.682Z,46.51
2023-03-06T04:03:06.394Z,46.49
2023-03-06T04:04:09.164Z,46.02
2023-03-06T04:05:11.253Z,46.48
2023-03-06T04:06:14.843Z,46.27
2023-03-06T04:07:16.572Z,46.21
2023-03-06T04:08:19.248Z,46.45
2023-03-06T04:09:20.964Z,46.45
2023-03-06T04:10:23.676Z,46.77
2023-03-06T04:11:25.361Z,46.28
2023-03-06T04:12:28.001Z,46.41
2023-03-06T04:13:29.662Z,46.40
2023-03-06T04:14:33.763Z,46.51
2023-03-06T04:15:35.440Z,46.40
2023-03-06T04:16:38.117Z,46.55
2023-03-06T04:17:39.817Z,46.54
2023-03-06T04:18:42.454Z,46.78
2023-03-06T04:19:44.157Z,46.77
2023-03-06T04:20:47.656Z,46.89
2023-03-06T04:21:49.459Z,46.71
2023-03-06T04:22:52.144Z,46.68
2023-03-06T04:23:53.848Z,46.66
2023-03-06T04:24:56.560Z,46.65
2023-03-06T04:25:58.498Z,46.72
2023-03-06T04:27:01.236Z,46.57
2023-03-06T04:28:03.966Z,46.75
2023-03-06T04:29:06.835Z,46.66
2023-03-06T04:30:11.545Z,47.04
2023-03-06T04:31:14.654Z,46.88
2023-03-06T04:32:16.405Z,46.78
2023-03-06T04:33:19.105Z,46.32
2023-03-06T04:34:20.761Z,46.96
2023-03-06T04:35:23.455Z,46.83
2023-03-06T04:36:29.370Z,46.59
2023-03-06T04:37:31.229Z,46.81
2023-03-06T04:38:33.953Z,46.55
2023-03-06T04:39:36.092Z,46.50
2023-03-06T04:40:38.806Z,46.72
2023-03-06T04:41:41.027Z,46.74
2023-03-06T04:42:44.045Z,46.73
2023-03-06T04:43:46.288Z,46.67
2023-03-06T04:44:49.008Z,46.57
2023-03-06T04:45:52.140Z,46.81
2023-03-06T04:46:54.903Z,46.75
2023-03-06T04:47:56.981Z,46.86
2023-03-06T04:48:59.917Z,46.97
2023-03-06T04:50:01.724Z,46.81
2023-03-06T04:51:04.748Z,46.73
2023-03-06T04:52:07.174Z,46.87
2023-03-06T04:53:11.294Z,46.97
2023-03-06T04:54:12.963Z,47.49
2023-03-06T04:55:17.523Z,47.25
2023-03-06T04:56:19.318Z,47.33
2023-03-06T04:57:22.091Z,47.02
2023-03-06T04:58:23.780Z,47.13
2023-03-06T04:59:26.608Z,47.22
2023-03-06T05:00:30.588Z,47.34
2023-03-06T05:01:34.683Z,47.16
2023-03-06T05:02:36.766Z,46.74
2023-03-06T05:03:39.528Z,47.01
2023-03-06T05:04:41.236Z,47.10
2023-03-06T05:05:43.926Z,47.27
2023-03-06T05:06:46.556Z,47.47
2023-03-06T05:07:49.252Z,47.36
2023-03-06T05:08:50.944Z,47.19
2023-03-06T05:09:53.773Z,47.32
2023-03-06T05:10:56.783Z,47.26
2023-03-06T05:11:59.451Z,47.36
2023-03-06T05:13:02.181Z,47.32
2023-03-06T05:14:03.945Z,47.47
2023-03-06T05:15:07.739Z,47.27
2023-03-06T05:16:09.534Z,47.54
2023-03-06T05:17:13.646Z,47.52
2023-03-06T05:18:15.395Z,47.33
2023-03-06T05:19:18.090Z,47.30
2023-03-06T05:20:20.068Z,47.43
2023-03-06T05:21:22.810Z,47.34
2023-03-06T05:22:24.554Z,47.93
2023-03-06T05:23:27.428Z,47.28
2023-03-06T05:24:29.259Z,47.70
2023-03-06T05:25:32.163Z,47.49
2023-03-06T05:26:34.792Z,47.66
2023-03-06T05:27:37.737Z,47.63
2023-03-06T05:28:39.820Z,47.76
2023-03-06T05:29:42.636Z,47.82
2023-03-06T05:30:44.379Z,47.98
2023-03-06T05:31:47.365Z,47.51
2023-03-06T05:32:50.652Z,47.82
2023-03-06T05:33:53.313Z,47.56
2023-03-06T05:34:55.372Z,47.71
2023-03-06T05:35:58.050Z,47.50
2023-03-06T05:37:00.622Z,47.72
2023-03-06T05:38:03.416Z,47.70
2023-03-06T05:39:05.112Z,47.63
2023-03-06T05:40:10.665Z,47.73
2023-03-06T05:41:12.867Z,47.38
2023-03-06T05:42:15.537Z,47.52
2023-03-06T05:43:17.242Z,47.91
2023-03-06T05:44:19.896Z,47.55
2023-03-06T05:45:21.798Z,47.61
2023-03-06T05:46:24.678Z,47.58
2023-03-06T05:47:26.418Z,47.70
2023-03-06T05:48:30.521Z,47.67
2023-03-06T05:49:32.914Z,47.71
2023-03-06T05:50:35.634Z,47.56
2023-03-06T05:51:37.364Z,47.77
2023-03-06T05:52:40.638Z,47.78
2023-03-06T05:53:42.299Z,47.65
2023-03-06T05:54:45.113Z,47.71
2023-03-06T05:55:55.720Z,47.76
2023-03-06T05:56:58.454Z,47.98
2023-03-06T05:58:00.209Z,48.02
2023-03-06T05:59:03.081Z,47.81
2023-03-06T06:00:06.223Z,48.15
2023-03-06T06:01:10.426Z,47.74
2023-03-06T06:02:12.181Z,47.73
2023-03-06T06:03:14.937Z,47.91
2023-03-06T06:04:18.008Z,48.01
2023-03-06T06:05:20.800Z,47.96
2023-03-06T06:06:22.588Z,48.10
2023-03-06T06:07:25.388Z,48.18
2023-03-06T06:08:27.034Z,48.38
2023-03-06T06:09:30.319Z,48.27
2023-03-06T06:10:33.072Z,47.96
2023-03-06T06:11:34.762Z,48.08
2023-03-06T06:12:37.466Z,48.11
2023-03-06T06:13:39.866Z,48.21
2023-03-06T06:14:42.603Z,48.30
2023-03-06T06:15:44.530Z,48.33
2023-03-06T06:16:47.718Z,48.10
2023-03-06T06:17:49.415Z,48.10
2023-03-06T06:18:52.112Z,48.07
2023-03-06T06:19:55.146Z,48.04
2023-03-06T06:20:57.823Z,48.07
2023-03-06T06:21:59.509Z,47.93
2023-03-06T06:23:02.149Z,48.13
2023-03-06T06:24:04.172Z,48.18
2023-03-06T06:25:08.282Z,48.35
2023-03-06T06:26:11.713Z,47.93
2023-03-06T06:27:14.574Z,47.94
2023-03-06T06:28:17.230Z,47.96
2023-03-06T06:29:19.544Z,48.01
2023-03-06T06:30:22.731Z,48.12
2023-03-06T06:31:24.472Z,48.06
2023-03-06T06:32:27.195Z,48.30
2023-03-06T06:33:28.868Z,48.31
2023-03-06T06:34:31.941Z,48.33
2023-03-06T06:35:37.245Z,48.17
2023-03-06T06:36:40.648Z,48.29
2023-03-06T06:37:42.359Z,48.37
2023-03-06T06:38:45.306Z,48.56
2023-03-06T06:39:46.958Z,48.40
2023-03-06T06:41:19.358Z,48.33
2023-03-06T06:42:29.274Z,48.45
2023-03-06T06:43:34.017Z,48.32
2023-03-06T06:44:35.942Z,48.27
2023-03-06T06:45:39.626Z,48.15
2023-03-06T06:48:06.595Z,48.21
2023-03-06T06:49:08.409Z,48.44
2023-03-06T06:50:13.582Z,48.13
2023-03-06T06:51:16.903Z,48.04
2023-03-06T06:52:20.002Z,48.08
2023-03-06T06:53:21.740Z,48.21
2023-03-06T06:54:24.793Z,48.01
2023-03-06T06:55:27.092Z,48.27
2023-03-06T06:56:29.950Z,48.44
2023-03-06T06:57:31.718Z,48.28
2023-03-06T06:58:34.411Z,48.56
2023-03-06T06:59:36.065Z,48.39
2023-03-06T07:00:38.763Z,48.62
2023-03-06T07:01:40.643Z,48.69
2023-03-06T07:02:43.737Z,48.61
2023-03-06T07:03:45.466Z,48.45
2023-03-06T07:05:02.448Z,48.49
2023-03-06T07:06:06.926Z,48.87
2023-03-06T07:07:10.081Z,48.59
2023-03-06T07:08:12.829Z,48.76
2023-03-06T07:09:16.083Z,49.06
2023-03-06T07:10:19.961Z,48.46
2023-03-06T07:11:23.769Z,48.78
2023-03-06T07:12:25.466Z,48.25
2023-03-06T07:13:28.138Z,48.74
2023-03-06T07:14:30.887Z,48.89
2023-03-06T07:15:32.579Z,49.09
2023-03-06T07:16:35.235Z,48.72
2023-03-06T07:17:37.141Z,48.52
2023-03-06T07:18:39.894Z,48.68
2023-03-06T07:19:42.536Z,48.41
2023-03-06T07:20:44.327Z,48.31
2023-03-06T07:21:47.027Z,48.37
2023-03-06T07:22:51.842Z,48.06
2023-03-06T07:23:57.296Z,48.43
2023-03-06T07:24:59.354Z,48.31
2023-03-06T07:26:02.511Z,48.15
2023-03-06T07:27:04.201Z,48.33
2023-03-06T07:28:07.136Z,47.97
2023-03-06T07:29:08.960Z,47.79
2023-03-06T07:30:13.643Z,48.46
2023-03-06T07:31:16.556Z,48.24
2023-03-06T07:32:18.484Z,48.03
2023-03-06T07:33:21.216Z,47.93
2023-03-06T07:34:23.912Z,48.04
2023-03-06T07:35:26.238Z,47.81
2023-03-06T07:36:28.874Z,47.84
2023-03-06T07:37:30.634Z,48.35
2023-03-06T07:38:36.618Z,47.51
2023-03-06T07:39:39.276Z,47.58
2023-03-06T07:40:42.254Z,48.16
2023-03-06T07:41:43.983Z,47.60
2023-03-06T07:42:46.668Z,47.87
2023-03-06T07:43:48.359Z,47.92
2023-03-06T07:44:51.037Z,47.46
2023-03-06T07:45:56.856Z,47.54
2023-03-06T07:46:59.644Z,47.46
2023-03-06T07:48:01.349Z,47.58
2023-03-06T07:49:04.186Z,47.80
2023-03-06T07:50:07.280Z,47.87
2023-03-06T07:51:15.272Z,47.97
2023-03-06T07:52:18.124Z,47.64
2023-03-06T07:53:22.644Z,47.86
2023-03-06T07:54:26.797Z,47.82
2023-03-06T07:55:28.718Z,47.78
2023-03-06T07:56:31.622Z,47.20
2023-03-06T07:57:33.320Z,47.74
2023-03-06T07:58:36.492Z,47.55
2023-03-06T07:59:38.178Z,47.67
2023-03-06T08:00:40.900Z,47.50
2023-03-06T08:01:43.641Z,47.46
2023-03-06T08:02:45.367Z,47.40
2023-03-06T08:03:50.013Z,47.61
2023-03-06T08:04:52.547Z,47.53
2023-03-06T08:05:55.258Z,47.74
2023-03-06T08:06:59.505Z,47.82
2023-03-06T08:08:02.223Z,47.90
2023-03-06T08:09:04.324Z,47.59
2023-03-06T08:10:09.219Z,48.10
2023-03-06T08:11:12.079Z,48.34
2023-03-06T08:12:17.803Z,48.19
2023-03-06T08:13:19.525Z,48.04
2023-03-06T08:14:22.506Z,48.21
2023-03-06T08:15:25.200Z,48.45
2023-03-06T08:16:29.632Z,47.90
2023-03-06T08:17:32.323Z,48.18
2023-03-06T08:18:35.199Z,48.19
2023-03-06T08:19:37.955Z,48.07
2023-03-06T08:20:40.687Z,48.33
2023-03-06T08:21:43.596Z,48.13
2023-03-06T08:22:45.632Z,48.39
2023-03-06T08:23:49.042Z,48.47
2023-03-06T08:24:55.638Z,48.11
2023-03-06T08:26:00.558Z,48.52
2023-03-06T08:27:02.481Z,47.78
2023-03-06T08:28:05.389Z,48.05
2023-03-06T08:29:08.109Z,48.12
2023-03-06T08:30:12.036Z,48.26
2023-03-06T08:31:21.607Z,47.91
2023-03-06T08:32:24.332Z,48.04
2023-03-06T08:33:28.068Z,48.14
2023-03-06T08:34:30.783Z,47.92
2023-03-06T08:35:33.472Z,47.43
2023-03-06T08:36:35.224Z,47.30
2023-03-06T08:37:38.031Z,47.54
2023-03-06T08:38:39.885Z,47.43
2023-03-06T08:39:42.553Z,47.51
2023-03-06T08:40:44.257Z,47.41
2023-03-06T08:41:48.345Z,47.04
2023-03-06T08:42:51.118Z,47.33
2023-03-06T08:43:53.186Z,47.25
2023-03-06T08:44:55.850Z,46.31
2023-03-06T08:45:58.405Z,46.91
2023-03-06T08:47:01.326Z,47.11
2023-03-06T08:48:03.302Z,46.91
2023-03-06T08:49:06.307Z,46.69
2023-03-06T08:50:09.127Z,46.60
2023-03-06T08:51:12.054Z,47.13
2023-03-06T08:52:14.764Z,46.75
2023-03-06T08:53:16.763Z,46.88
2023-03-06T08:54:19.414Z,46.85
2023-03-06T08:55:22.050Z,47.30
2023-03-06T08:56:25.627Z,46.97
2023-03-06T08:57:29.632Z,46.07
2023-03-06T08:58:31.382Z,45.83
2023-03-06T08:59:34.248Z,46.11
2023-03-06T09:00:36.755Z,46.17
2023-03-06T09:01:40.008Z,46.41
2023-03-06T09:02:41.886Z,46.75
2023-03-06T09:03:44.633Z,46.27
2023-03-06T09:04:47.318Z,46.30
2023-03-06T09:05:49.057Z,46.50
2023-03-06T09:06:53.483Z,46.35
2023-03-06T09:07:57.216Z,46.38
2023-03-06T09:08:59.110Z,45.46
2023-03-06T09:10:02.029Z,45.25
2023-03-06T09:11:05.288Z,45.19
2023-03-06T09:12:08.242Z,45.03
2023-03-06T09:13:12.268Z,45.86
2023-03-06T09:14:15.308Z,45.05
2023-03-06T09:15:17.438Z,45.63
2023-03-06T09:16:20.247Z,45.28
2023-03-06T09:17:22.973Z,45.67
2023-03-06T09:18:24.784Z,45.50
2023-03-06T09:19:27.716Z,46.16
2023-03-06T09:20:29.529Z,45.40
2023-03-06T09:21:32.297Z,45.04
2023-03-06T09:22:36.111Z,46.01
2023-03-06T09:23:40.001Z,46.05
2023-03-06T09:24:42.684Z,45.61
2023-03-06T09:25:46.123Z,45.79
2023-03-06T09:26:51.133Z,45.58
2023-03-06T09:28:08.807Z,44.47
2023-03-06T09:29:16.328Z,44.99
2023-03-06T09:30:18.895Z,45.28
2023-03-06T09:31:21.693Z,44.77
2023-03-06T09:32:25.188Z,45.23
2023-03-06T09:33:28.599Z,44.67
2023-03-06T09:34:31.247Z,44.54
2023-03-06T09:35:33.006Z,43.91
2023-03-06T09:36:49.258Z,44.00
2023-03-06T09:37:58.282Z,44.38
2023-03-06T09:39:01.079Z,43.61
2023-03-06T09:40:05.884Z,44.14
2023-03-06T09:41:12.034Z,44.18
2023-03-06T09:42:17.171Z,44.38
2023-03-06T09:43:21.182Z,43.43
2023-03-06T09:44:27.616Z,43.76
2023-03-06T09:45:30.822Z,43.17
2023-03-06T09:46:47.660Z,43.59
2023-03-06T09:47:53.818Z,43.75
2023-03-06T09:49:13.236Z,44.11
2023-03-06T09:50:30.112Z,43.60
2023-03-06T09:51:42.146Z,43.38
2023-03-06T09:52:47.871Z,44.04
2023-03-06T09:54:00.142Z,43.40
2023-03-06T09:55:12.494Z,43.82
2023-03-06T09:56:17.976Z,43.82
2023-03-06T09:57:23.799Z,43.58
2023-03-06T09:58:27.154Z,43.72
2023-03-06T09:59:31.662Z,44.33
2023-03-06T10:00:36.537Z,44.22
2023-03-06T10:01:42.360Z,43.95
2023-03-06T10:02:47.405Z,43.27
2023-03-06T10:03:54.271Z,43.87
2023-03-06T10:05:01.073Z,43.92
2023-03-06T10:06:06.399Z,44.02
2023-03-06T10:07:14.440Z,43.36
2023-03-06T10:08:27.214Z,43.32
2023-03-06T10:09:36.558Z,43.79
2023-03-06T10:10:44.276Z,44.07
2023-03-06T10:11:48.215Z,43.98
2023-03-06T10:12:59.057Z,44.01
2023-03-06T10:14:15.233Z,44.13
2023-03-06T10:15:22.396Z,43.62
2023-03-06T10:16:28.182Z,43.40
2023-03-06T10:17:35.319Z,43.74
2023-03-06T10:18:39.087Z,44.02
2023-03-06T10:19:42.610Z,43.80
2023-03-06T10:20:50.001Z,43.37
2023-03-06T10:21:58.672Z,43.82
2023-03-06T10:23:11.199Z,43.44
2023-03-06T10:24:23.792Z,43.58
2023-03-06T10:25:27.958Z,44.33
2023-03-06T10:26:34.221Z,43.33
2023-03-06T10:27:39.911Z,43.24
2023-03-06T10:28:44.047Z,43.67
2023-03-06T10:30:02.272Z,43.04
2023-03-06T10:31:12.123Z,42.83
2023-03-06T10:32:29.073Z,42.57
2023-03-06T10:33:46.214Z,42.28
2023-03-06T10:34:48.422Z,43.27
2023-03-06T10:35:54.161Z,42.29
2023-03-06T10:36:59.566Z,42.22
2023-03-06T10:38:17.228Z,42.15
2023-03-06T10:39:23.126Z,41.52
2023-03-06T10:40:30.544Z,41.55
2023-03-06T10:41:35.813Z,41.21
2023-03-06T10:42:38.562Z,41.51
2023-03-06T10:43:42.610Z,40.54
2023-03-06T10:44:45.347Z,40.12
2023-03-06T10:45:50.142Z,40.60
2023-03-06T10:46:54.462Z,40.61
2023-03-06T10:48:12.876Z,40.19
2023-03-06T10:49:27.774Z,40.30
2023-03-06T10:50:32.143Z,40.26
2023-03-06T10:51:35.571Z,40.38
2023-03-06T10:52:37.310Z,40.21
2023-03-06T10:53:50.676Z,40.37
2023-03-06T10:54:53.390Z,40.52
2023-03-06T10:55:56.864Z,39.93
2023-03-06T10:56:59.619Z,40.16
2023-03-06T10:58:17.020Z,39.84
2023-03-06T10:59:22.890Z,39.76
2023-03-06T11:00:27.917Z,40.33
2023-03-06T11:01:31.703Z,39.42
2023-03-06T11:02:38.384Z,38.81
2023-03-06T11:03:41.230Z,39.43
2023-03-06T11:04:47.072Z,39.92
2023-03-06T11:06:07.470Z,39.08
2023-03-06T11:07:16.285Z,39.19
2023-03-06T11:08:21.559Z,40.10
2023-03-06T11:09:26.261Z,39.42
2023-03-06T11:10:30.167Z,39.51
2023-03-06T11:11:37.736Z,40.13
2023-03-06T11:12:40.814Z,39.56
2023-03-06T11:13:44.706Z,39.34
2023-03-06T11:14:47.507Z,39.98
2023-03-06T11:15:57.166Z,39.39
2023-03-06T11:17:00.010Z,40.30
2023-03-06T11:18:05.805Z,39.10
2023-03-06T11:19:18.858Z,39.73
2023-03-06T11:20:24.293Z,39.25
2023-03-06T11:21:31.720Z,38.83
2023-03-06T11:22:35.208Z,39.44
2023-03-06T11:23:43.998Z,39.42
2023-03-06T11:24:50.009Z,38.81
2023-03-06T11:25:56.410Z,38.94
2023-03-06T11:27:01.208Z,38.54
2023-03-06T11:28:08.657Z,38.24
2023-03-06T11:29:26.033Z,37.94
2023-03-06T11:30:33.547Z,38.17
2023-03-06T11:31:39.318Z,37.94
2023-03-06T11:32:45.128Z,37.20
2023-03-06T11:33:52.266Z,37.28
2023-03-06T11:34:57.776Z,37.19
2023-03-06T11:36:05.664Z,36.81
2023-03-06T11:37:11.325Z,36.48
2023-03-06T11:38:14.881Z,36.69
2023-03-06T11:39:23.342Z,36.93
2023-03-06T11:40:32.387Z,36.86
2023-03-06T11:41:40.348Z,36.62
2023-03-06T11:42:45.932Z,36.83
2023-03-06T11:43:55.898Z,37.21
2023-03-06T11:45:09.933Z,36.81
2023-03-06T11:46:18.485Z,37.22
2023-03-06T11:47:23.774Z,37.17
2023-03-06T11:48:29.866Z,37.44
2023-03-06T11:49:39.388Z,37.31
2023-03-06T11:50:44.389Z,36.98
2023-03-06T11:51:50.746Z,37.16
2023-03-06T11:52:55.099Z,36.81
2023-03-06T11:54:00.069Z,37.13
2023-03-06T11:55:02.018Z,36.84
2023-03-06T11:56:15.685Z,36.88
2023-03-06T11:57:20.166Z,36.60
2023-03-06T11:58:41.625Z,36.97
2023-03-06T12:00:07.823Z,37.02
2023-03-06T12:01:14.303Z,37.11
2023-03-06T12:02:27.569Z,36.83
2023-03-06T12:03:49.554Z,36.73
2023-03-06T12:04:57.133Z,36.96
2023-03-06T12:06:04.357Z,36.50
2023-03-06T12:07:20.421Z,36.55
2023-03-06T12:08:32.260Z,36.96
2023-03-06T12:09:43.423Z,36.87
2023-03-06T12:10:51.791Z,36.42
2023-03-06T12:12:07.287Z,36.22
2023-03-06T12:13:33.857Z,36.08
2023-03-06T12:14:49.560Z,36.11
2023-03-06T12:16:04.206Z,36.41
2023-03-06T12:17:14.661Z,36.48
2023-03-06T12:18:28.834Z,36.25
2023-03-06T12:19:39.137Z,36.41
2023-03-06T12:20:52.016Z,36.07
2023-03-06T12:22:08.218Z,35.92
2023-03-06T12:23:15.837Z,35.95
2023-03-06T12:24:47.642Z,36.07
2023-03-06T12:25:52.420Z,35.51
2023-03-06T12:27:04.545Z,35.90
2023-03-06T12:28:32.929Z,35.68
2023-03-06T12:29:58.559Z,35.85
2023-03-06T12:31:23.737Z,35.59
2023-03-06T12:32:37.002Z,35.28
2023-03-06T12:33:43.338Z,35.17
2023-03-06T12:35:05.882Z,35.40
2023-03-06T12:36:28.579Z,35.33
2023-03-06T12:37:39.018Z,35.44
2023-03-06T12:38:56.987Z,35.04
2023-03-06T12:40:24.377Z,35.29
2023-03-06T12:41:38.245Z,35.47
2023-03-06T12:43:03.197Z,34.93
2023-03-06T12:44:23.557Z,35.22
2023-03-06T12:45:31.119Z,35.00
2023-03-06T12:46:36.133Z,35.17
2023-03-06T12:47:43.572Z,34.42
2023-03-06T12:48:49.516Z,34.51
2023-03-06T12:49:57.465Z,33.85
2023-03-06T12:51:00.244Z,33.66
2023-03-06T12:52:05.365Z,33.99
2023-03-06T12:53:09.618Z,34.09
2023-03-06T12:54:12.747Z,34.45
2023-03-06T12:55:20.371Z,34.12
2023-03-06T12:56:24.849Z,34.20
2023-03-06T12:57:28.143Z,33.95
2023-03-06T12:58:51.858Z,33.43
2023-03-06T12:59:55.390Z,33.90
2023-03-06T13:01:04.167Z,33.96
2023-03-06T13:02:28.799Z,33.67
2023-03-06T13:03:36.532Z,33.67
2023-03-06T13:04:48.495Z,33.43
2023-03-06T13:06:24.343Z,34.03
2023-03-06T13:07:38.644Z,34.22
2023-03-06T13:08:59.341Z,33.84
2023-03-06T13:10:12.391Z,33.87
2023-03-06T13:11:31.221Z,33.12
2023-03-06T13:12:49.833Z,32.54
2023-03-06T13:13:52.559Z,32.05
2023-03-06T13:14:59.518Z,31.88
2023-03-06T13:16:13.972Z,31.98
2023-03-06T13:17:27.085Z,32.26
2023-03-06T13:18:49.045Z,31.80
2023-03-06T13:20:43.662Z,31.33
2023-03-06T13:22:03.156Z,31.54
2023-03-06T13:23:49.425Z,30.91
2023-03-06T13:25:36.880Z,31.12
2023-03-06T13:27:00.683Z,30.85
2023-03-06T13:28:04.017Z,30.72
2023-03-06T13:29:59.962Z,30.82
2023-03-06T13:31:02.709Z,30.28
2023-03-06T13:32:16.750Z,30.04
2023-03-06T13:33:58.239Z,30.06
2023-03-06T13:34:59.956Z,29.52
2023-03-06T13:36:21.554Z,29.76
2023-03-06T13:37:54.268Z,29.50
2023-03-06T13:39:05.268Z,29.61
2023-03-06T13:40:26.714Z,30.09
2023-03-06T13:41:58.595Z,29.94
2023-03-06T13:43:21.350Z,30.46
2023-03-06T13:44:41.574Z,30.46
2023-03-06T13:45:44.494Z,30.70
2023-03-06T13:46:57.420Z,31.26
2023-03-06T13:48:37.458Z,31.33
2023-03-06T13:49:25.839Z,31.40
2023-03-06T13:50:33.658Z,31.71
2023-03-06T13:51:38.161Z,31.39
2023-03-06T13:52:44.717Z,31.75
2023-03-06T13:54:01.320Z,31.43
2023-03-06T13:55:09.881Z,31.94
2023-03-06T13:56:42.434Z,31.86
2023-03-06T13:58:17.717Z,31.94
2023-03-06T13:59:30.571Z,31.97
2023-03-06T14:00:46.161Z,32.51
2023-03-06T14:01:55.067Z,32.27
2023-03-06T14:03:19.873Z,32.71
2023-03-06T14:04:38.616Z,32.28
2023-03-06T14:05:43.490Z,32.32
2023-03-06T14:07:20.376Z,32.51